LKTBLKMT

Guest
Details From LKTB - Turany
To LKMT - Ostrava Mosnov
Flight Number -
Tags generated
Created
Modified
Stats Distance 64 nm / 119 km
Max Altitude 0 ft / 0 m
Waypoints 3
Social Downloads 4
Likes 0
Share VATSIM

Download

Looking for another format? Having issues loading an existing format? Contact us
Advertisement - Login to hide

Notes

Basic altitude profile: - Ascent Rate: 2500ft/min - Ascent Speed: 250kts - Cruise Altitude: 35000ft - Cruise Speed: 420kts - Descent Rate: 1500ft/min - Descent Speed: 250kts Options: - Use NATs: yes - Use PACOTS: yes - Use low airways: yes - Use high airways: yes

Route

LKTB BNO LKMT

ID Type Via Altitude Latitude Longitude Leg Dist Tot Dist Heading (true) Name
O LKTB APT - 0 ft / 0 m 49.15102˚ 16.69317˚ - 0 nm - Turany
BNO VOR - 0 ft / 0 m 49.15006˚ 16.69258˚ 0 nm 0 nm 202° / 202° BRNO VOR-DME
O LKMT APT - 0 ft / 0 m 49.69622˚ 18.11085˚ 64 nm 64 nm 59° / 60° Ostrava Mosnov

Altitude Profile

Advertisement - Login to hide

LKTB

Details ICAO LKTB (BRQ)
Name Turany
Region Czech Republic
Timezone Europe/Prague (UTC+1.0)
Stats Elevation 777 ft / 237 m (AMSL)
Location 49.151016° 16.693171°
Runways 2
Magnetic Variation 4.377° E

METAR

LKTB 112300Z 17006KT CAVOK 11/06 Q0992 NOSIG

Decode

TAF

TAF LKTB 111700Z 1118/1300 18016KT CAVOK TEMPO 1118/1206 16018G38KT PROB30 TEMPO 1118/1205 17020G42KT BECMG 1202/1205 9999 BKN030 BECMG 1206/1209 24014KT BECMG 1212/1215 CAVOK BECMG 1216/1218 29008KT

Decode

Departure Runways

ID Width Length Bearing (true) Bearing (mag) Surface Threshold Offset Overrun Length
09 98 ft / 30 m 3,272 ft / 997 m 97.50° 93.12° Grass 0 ft / 0 m 0 ft / 0 m
10 197 ft / 60 m 8,674 ft / 2,644 m 97.52° 93.14° Concrete 0 ft / 0 m 0 ft / 0 m
27 98 ft / 30 m 3,272 ft / 997 m 277.51° 273.13° Grass 0 ft / 0 m 0 ft / 0 m
28 197 ft / 60 m 8,674 ft / 2,644 m 277.55° 273.17° Concrete 0 ft / 0 m 0 ft / 0 m

LKMT

Details ICAO LKMT (OSR)
Name Ostrava Mosnov
Region Czech Republic
Timezone Europe/Prague (UTC+1.0)
Stats Elevation 843 ft / 257 m (AMSL)
Location 49.696217° 18.110855°
Runways 1
Magnetic Variation 4.763° E

METAR

LKMT 112300Z 20020G35KT CAVOK 13/05 Q0992 NOSIG

Decode

TAF

TAF LKMT 111700Z 1118/1300 20020KT CAVOK TEMPO 1118/1210 22026G44KT PROB30 TEMPO 1122/1207 21028G54KT TEMPO 1207/1215 7000 SHRA BKN013 BECMG 1210/1212 24012KT TEMPO 1212/1220 25014G24KT

Decode

Destination Runways

ID Width Length Bearing (true) Bearing (mag) Surface Threshold Offset Overrun Length
04 207 ft / 63 m 11,532 ft / 3,515 m 46.29° 41.53° Concrete 0 ft / 0 m 52 ft / 16 m
22 207 ft / 63 m 11,532 ft / 3,515 m 226.31° 221.55° Concrete 0 ft / 0 m 49 ft / 15 m

Approach Navaids

Runway Type Ident Frequency Range Bearing (true) Bearing (mag) Slope Elevation
22 Localiser OSV 110.95 MHz 18 nm / 33 km 226.26° 221.50° - 807 ft / 246 m (AMSL)
22 Glidescope OSV 110.95 MHz 10 nm / 19 km 226.30° 221.54° 3.00° 807 ft / 246 m (AMSL)
22 DME OSV 110.95 MHz 18 nm / 33 km - - - 824 ft / 251 m (AMSL)

Popular Alternatives